createdAt,value
2024-01-29T00:01:17.199Z,102452.87
2024-01-29T00:03:52.534Z,102456.92
2024-01-29T00:06:20.817Z,102457.52
2024-01-29T00:08:49.139Z,102455.78
2024-01-29T00:11:17.818Z,102453.15
2024-01-29T00:13:47.573Z,102453.39
2024-01-29T00:16:16.038Z,102457.77
2024-01-29T00:18:44.381Z,102463.79
2024-01-29T00:21:14.330Z,102464.40
2024-01-29T00:23:42.481Z,102458.88
2024-01-29T00:26:11.006Z,102459.86
2024-01-29T00:28:39.138Z,102456.98
2024-01-29T00:31:08.684Z,102452.10
2024-01-29T00:33:37.604Z,102449.79
2024-01-29T00:36:06.109Z,102452.41
2024-01-29T00:38:34.696Z,102454.05
2024-01-29T00:41:02.818Z,102455.22
2024-01-29T00:43:30.882Z,102452.98
2024-01-29T00:45:59.201Z,102451.92
2024-01-29T00:48:27.553Z,102446.09
2024-01-29T00:50:57.097Z,102444.91
2024-01-29T00:53:25.581Z,102444.90
2024-01-29T00:55:55.237Z,102447.48
2024-01-29T00:58:23.363Z,102448.69
2024-01-29T01:00:52.400Z,102448.02
2024-01-29T01:03:21.062Z,102448.16
2024-01-29T01:05:49.691Z,102440.09
2024-01-29T01:08:18.951Z,102442.21
2024-01-29T01:10:47.399Z,102436.75
2024-01-29T01:13:15.489Z,102430.11
2024-01-29T01:15:43.661Z,102427.36
2024-01-29T01:18:12.560Z,102425.35
2024-01-29T01:20:40.952Z,102428.29
2024-01-29T01:23:09.196Z,102426.17
2024-01-29T01:25:37.684Z,102425.27
2024-01-29T01:28:07.861Z,102422.67
2024-01-29T01:30:36.117Z,102420.73
2024-01-29T01:33:04.914Z,102419.60
2024-01-29T01:35:33.071Z,102415.89
2024-01-29T01:38:01.463Z,102415.05
2024-01-29T01:40:29.606Z,102414.44
2024-01-29T01:42:57.800Z,102408.38
2024-01-29T01:45:26.095Z,102412.84
2024-01-29T01:47:54.680Z,102410.65
2024-01-29T01:50:23.406Z,102408.06
2024-01-29T01:52:51.472Z,102413.48
2024-01-29T01:55:19.756Z,102416.31
2024-01-29T01:57:48.173Z,102411.34
2024-01-29T02:00:17.434Z,102408.98
2024-01-29T02:02:45.496Z,102405.77
2024-01-29T02:05:13.953Z,102406.59
2024-01-29T02:07:42.696Z,102402.34
2024-01-29T02:10:11.432Z,102400.80
2024-01-29T02:12:39.669Z,102401.08
2024-01-29T02:15:09.657Z,102397.10
2024-01-29T02:17:38.053Z,102395.59
2024-01-29T02:20:08.205Z,102390.63
2024-01-29T02:22:41.850Z,102390.45
2024-01-29T02:25:10.178Z,102392.09
2024-01-29T02:27:38.547Z,102395.98
2024-01-29T02:30:07.435Z,102394.82
2024-01-29T02:32:35.799Z,102388.39
2024-01-29T02:35:04.657Z,102395.02
2024-01-29T02:37:32.965Z,102397.02
2024-01-29T02:40:01.174Z,102398.12
2024-01-29T02:42:29.825Z,102400.27
2024-01-29T02:44:58.095Z,102397.34
2024-01-29T02:47:26.779Z,102405.70
2024-01-29T02:49:55.156Z,102405.66
2024-01-29T02:52:23.690Z,102407.36
2024-01-29T02:54:51.928Z,102404.88
2024-01-29T02:57:25.442Z,102403.34
2024-01-29T02:59:55.008Z,102401.82
2024-01-29T03:02:23.068Z,102402.06
2024-01-29T03:04:51.480Z,102405.93
2024-01-29T03:07:19.821Z,102408.63
2024-01-29T03:09:48.024Z,102408.23
2024-01-29T03:12:16.407Z,102408.89
2024-01-29T03:14:44.558Z,102412.52
2024-01-29T03:17:12.822Z,102415.70
2024-01-29T03:19:41.675Z,102416.58
2024-01-29T03:22:10.062Z,102424.54
2024-01-29T03:24:38.403Z,102426.23
2024-01-29T03:27:06.848Z,102421.15
2024-01-29T03:29:34.966Z,102417.45
2024-01-29T03:32:03.322Z,102417.16
2024-01-29T03:34:31.529Z,102417.59
2024-01-29T03:36:59.873Z,102415.24
2024-01-29T03:39:28.182Z,102407.89
2024-01-29T03:41:56.419Z,102401.75
2024-01-29T03:44:24.784Z,102395.67
2024-01-29T03:46:53.162Z,102390.45
2024-01-29T03:49:21.529Z,102388.94
2024-01-29T03:51:49.688Z,102390.02
2024-01-29T03:54:17.885Z,102392.42
2024-01-29T03:56:45.996Z,102390.70
2024-01-29T03:59:14.351Z,102391.98
2024-01-29T04:01:42.949Z,102383.64
2024-01-29T04:04:12.535Z,102380.38
2024-01-29T04:06:42.119Z,102376.30
2024-01-29T04:09:10.942Z,102373.45
2024-01-29T04:11:39.524Z,102367.64
2024-01-29T04:14:07.574Z,102362.27
2024-01-29T04:16:35.963Z,102358.20
2024-01-29T04:19:04.136Z,102357.15
2024-01-29T04:21:32.304Z,102357.93
2024-01-29T04:24:00.535Z,102349.28
2024-01-29T04:26:28.953Z,102355.44
2024-01-29T04:28:57.116Z,102349.27
2024-01-29T04:31:25.508Z,102350.02
2024-01-29T04:33:53.822Z,102350.95
2024-01-29T04:36:22.073Z,102349.26
2024-01-29T04:38:50.877Z,102349.45
2024-01-29T04:41:20.276Z,102343.96
2024-01-29T04:43:48.423Z,102346.15
2024-01-29T04:46:17.689Z,102345.34
2024-01-29T04:48:46.189Z,102353.39
2024-01-29T04:51:14.671Z,102356.84
2024-01-29T04:53:43.258Z,102351.71
2024-01-29T04:56:11.262Z,102350.30
2024-01-29T04:58:39.510Z,102352.52
2024-01-29T05:01:07.685Z,102348.34
2024-01-29T05:03:36.421Z,102350.42
2024-01-29T05:06:04.913Z,102352.52
2024-01-29T05:08:33.117Z,102351.29
2024-01-29T05:11:01.398Z,102349.92
2024-01-29T05:13:29.742Z,102342.67
2024-01-29T05:15:58.112Z,102333.64
2024-01-29T05:18:26.476Z,102330.70
2024-01-29T05:20:55.032Z,102332.38
2024-01-29T05:23:23.281Z,102334.80
2024-01-29T05:25:51.382Z,102342.77
2024-01-29T05:28:20.014Z,102343.53
2024-01-29T05:30:47.997Z,102340.16
2024-01-29T05:33:25.273Z,102340.26
2024-01-29T05:35:56.592Z,102344.85
2024-01-29T05:38:26.269Z,102345.16
2024-01-29T05:40:54.445Z,102345.36
2024-01-29T05:43:22.907Z,102347.83
2024-01-29T05:45:51.154Z,102353.15
2024-01-29T05:48:20.940Z,102356.20
2024-01-29T05:50:49.293Z,102355.98
2024-01-29T05:53:21.666Z,102360.48
2024-01-29T05:55:50.425Z,102363.80
2024-01-29T05:58:18.991Z,102365.20
2024-01-29T06:00:47.351Z,102362.66
2024-01-29T06:03:15.660Z,102358.32
2024-01-29T06:05:44.189Z,102362.92
2024-01-29T06:08:12.465Z,102369.23
2024-01-29T06:10:41.113Z,102373.15
2024-01-29T06:13:09.713Z,102374.65
2024-01-29T06:15:38.371Z,102373.44
2024-01-29T06:18:07.490Z,102369.11
2024-01-29T06:20:35.837Z,102371.45
2024-01-29T06:23:04.765Z,102369.36
2024-01-29T06:25:33.226Z,102366.98
2024-01-29T06:28:01.645Z,102371.26
2024-01-29T06:30:29.883Z,102372.35
2024-01-29T06:32:58.810Z,102368.61
2024-01-29T06:35:27.152Z,102376.43
2024-01-29T06:37:55.428Z,102380.56
2024-01-29T06:40:28.641Z,102377.81
2024-01-29T06:42:58.406Z,102375.08
2024-01-29T06:45:30.105Z,102375.79
2024-01-29T06:47:59.540Z,102379.09
2024-01-29T06:50:27.752Z,102375.04
2024-01-29T06:52:56.113Z,102376.66
2024-01-29T06:55:24.769Z,102378.00
2024-01-29T06:57:53.046Z,102377.60
2024-01-29T07:00:21.683Z,102367.75
2024-01-29T07:02:49.881Z,102370.52
2024-01-29T07:05:18.340Z,102366.67
2024-01-29T07:07:46.588Z,102368.25
2024-01-29T07:10:16.208Z,102375.48
2024-01-29T07:12:44.651Z,102375.56
2024-01-29T07:15:15.380Z,102374.81
2024-01-29T07:17:43.629Z,102373.68
2024-01-29T07:20:12.534Z,102372.23
2024-01-29T07:22:41.012Z,102365.48
2024-01-29T07:25:09.940Z,102360.02
2024-01-29T07:27:38.349Z,102355.98
2024-01-29T07:30:07.605Z,102352.69
2024-01-29T07:32:35.910Z,102350.64
2024-01-29T07:35:05.386Z,102352.42
2024-01-29T07:37:34.122Z,102346.29
2024-01-29T07:40:04.950Z,102343.08
2024-01-29T07:42:33.692Z,102344.69
2024-01-29T07:45:02.941Z,102345.40
2024-01-29T07:47:31.282Z,102349.52
2024-01-29T07:49:59.536Z,102349.07
2024-01-29T07:52:27.976Z,102347.05
2024-01-29T07:54:56.778Z,102342.56
2024-01-29T07:57:26.637Z,102342.27
2024-01-29T07:59:54.844Z,102350.12
2024-01-29T08:02:23.207Z,102354.46
2024-01-29T08:04:51.911Z,102357.03
2024-01-29T08:07:20.408Z,102354.96
2024-01-29T08:09:49.112Z,102359.08
2024-01-29T08:12:17.352Z,102358.52
2024-01-29T08:14:45.725Z,102357.30
2024-01-29T08:17:14.026Z,102360.58
2024-01-29T08:19:42.594Z,102364.58
2024-01-29T08:22:10.972Z,102367.05
2024-01-29T08:24:40.010Z,102369.36
2024-01-29T08:27:08.241Z,102368.54
2024-01-29T08:29:36.683Z,102364.05
2024-01-29T08:32:05.723Z,102362.14
2024-01-29T08:34:34.283Z,102360.23
2024-01-29T08:37:02.690Z,102359.02
2024-01-29T08:39:32.083Z,102363.76
2024-01-29T08:42:00.606Z,102360.17
2024-01-29T08:44:29.261Z,102358.17
2024-01-29T08:46:57.433Z,102361.36
2024-01-29T08:49:25.821Z,102363.64
2024-01-29T08:51:54.053Z,102362.55
2024-01-29T08:54:22.354Z,102365.11
2024-01-29T08:56:50.521Z,102359.89
2024-01-29T08:59:22.166Z,102356.54
2024-01-29T09:01:50.676Z,102356.11
2024-01-29T09:04:19.139Z,102360.13
2024-01-29T09:06:47.343Z,102358.46
2024-01-29T09:09:15.575Z,102356.48
2024-01-29T09:11:44.161Z,102354.31
2024-01-29T09:14:14.213Z,102352.34
2024-01-29T09:16:42.367Z,102351.45
2024-01-29T09:19:11.005Z,102348.64
2024-01-29T09:21:39.606Z,102356.13
2024-01-29T09:24:08.003Z,102359.77
2024-01-29T09:26:36.164Z,102363.35
2024-01-29T09:29:05.197Z,102363.46
2024-01-29T09:31:34.132Z,102363.73
2024-01-29T09:34:04.339Z,102361.42
2024-01-29T09:36:33.132Z,102358.79
2024-01-29T09:39:01.749Z,102359.70
2024-01-29T09:41:35.006Z,102360.27
2024-01-29T09:44:07.835Z,102365.52
2024-01-29T09:46:39.293Z,102365.98
2024-01-29T09:49:08.864Z,102362.21
2024-01-29T09:51:37.416Z,102364.42
2024-01-29T09:54:06.690Z,102364.06
2024-01-29T09:56:34.847Z,102363.48
2024-01-29T09:59:04.461Z,102363.59
2024-01-29T10:01:33.874Z,102366.91
2024-01-29T10:04:02.198Z,102362.24
2024-01-29T10:06:33.553Z,102358.20
2024-01-29T10:09:02.212Z,102356.87
2024-01-29T10:11:31.250Z,102356.95
2024-01-29T10:14:00.952Z,102349.01
2024-01-29T10:16:29.581Z,102343.71
2024-01-29T10:18:59.590Z,102340.13
2024-01-29T10:21:28.644Z,102336.39
2024-01-29T10:23:58.384Z,102329.02
2024-01-29T10:26:28.191Z,102327.05
2024-01-29T10:29:07.927Z,102324.38
2024-01-29T10:31:37.317Z,102324.46
2024-01-29T10:34:07.259Z,102321.12
2024-01-29T10:36:40.184Z,102322.92
2024-01-29T10:39:13.446Z,102318.83
2024-01-29T10:41:44.344Z,102318.69
2024-01-29T10:44:17.743Z,102317.57
2024-01-29T10:46:48.677Z,102322.26
2024-01-29T10:49:17.272Z,102324.92
2024-01-29T10:51:49.268Z,102317.14
2024-01-29T10:54:17.859Z,102311.42
2024-01-29T10:56:46.237Z,102313.45
2024-01-29T10:59:15.486Z,102315.79
2024-01-29T11:01:52.208Z,102320.86
2024-01-29T11:04:26.990Z,102312.72
2024-01-29T11:07:06.007Z,102311.05
2024-01-29T11:09:35.590Z,102307.50
2024-01-29T11:12:06.615Z,102304.98
2024-01-29T11:14:34.758Z,102305.73
2024-01-29T11:17:02.937Z,102299.27
2024-01-29T11:19:34.679Z,102299.13
2024-01-29T11:22:02.978Z,102295.42
2024-01-29T11:24:34.212Z,102289.70
2024-01-29T11:27:13.666Z,102289.48
2024-01-29T11:29:46.007Z,102289.61
2024-01-29T11:32:17.261Z,102283.38
2024-01-29T11:34:45.570Z,102279.52
2024-01-29T11:37:16.327Z,102278.36
2024-01-29T11:39:46.515Z,102277.36
2024-01-29T11:42:16.011Z,102275.33
2024-01-29T11:44:44.372Z,102277.98
2024-01-29T11:47:12.540Z,102272.56
2024-01-29T11:49:42.208Z,102269.83
2024-01-29T11:52:11.950Z,102261.82
2024-01-29T11:54:40.281Z,102263.02
2024-01-29T11:57:08.726Z,102260.13
2024-01-29T11:59:46.794Z,102254.36
2024-01-29T12:02:15.275Z,102248.45
2024-01-29T12:04:43.614Z,102244.98
2024-01-29T12:07:12.556Z,102240.23
2024-01-29T12:09:40.874Z,102236.33
2024-01-29T12:12:09.943Z,102235.34
2024-01-29T12:14:38.123Z,102232.80
2024-01-29T12:17:08.065Z,102229.85
2024-01-29T12:19:36.520Z,102223.66
2024-01-29T12:22:05.761Z,102220.39
2024-01-29T12:24:33.966Z,102220.21
2024-01-29T12:27:02.299Z,102215.42
2024-01-29T12:29:30.738Z,102213.86
2024-01-29T12:32:07.754Z,102208.04
2024-01-29T12:34:44.477Z,102205.80
2024-01-29T12:37:22.881Z,102207.73
2024-01-29T12:39:55.860Z,102204.15
2024-01-29T12:42:30.346Z,102204.06
2024-01-29T12:45:09.858Z,102201.73
2024-01-29T12:47:38.395Z,102196.13
2024-01-29T12:50:06.784Z,102199.41
2024-01-29T12:52:35.133Z,102197.87
2024-01-29T12:55:04.066Z,102199.75
2024-01-29T12:57:32.388Z,102200.26
2024-01-29T13:00:00.574Z,102203.19
2024-01-29T13:02:29.212Z,102202.16
2024-01-29T13:04:57.455Z,102196.30
2024-01-29T13:07:26.814Z,102196.42
2024-01-29T13:09:56.332Z,102193.48
2024-01-29T13:12:24.494Z,102195.13
2024-01-29T13:14:52.763Z,102190.77
2024-01-29T13:17:20.768Z,102189.40
2024-01-29T13:19:49.169Z,102185.35
2024-01-29T13:22:17.365Z,102186.75
2024-01-29T13:24:45.642Z,102180.08
2024-01-29T13:27:14.676Z,102179.11
2024-01-29T13:29:43.625Z,102178.83
2024-01-29T13:32:11.799Z,102177.96
2024-01-29T13:34:39.956Z,102180.55
2024-01-29T13:37:08.405Z,102181.38
2024-01-29T13:39:37.249Z,102180.48
2024-01-29T13:42:05.826Z,102178.38
2024-01-29T13:44:34.302Z,102178.38
2024-01-29T13:47:02.413Z,102177.69
2024-01-29T13:49:31.204Z,102177.33
2024-01-29T13:51:59.388Z,102174.38
2024-01-29T13:54:29.356Z,102173.49
2024-01-29T13:56:57.750Z,102170.17
2024-01-29T13:59:26.541Z,102164.11
2024-01-29T14:01:54.839Z,102163.55
2024-01-29T14:04:23.181Z,102168.00
2024-01-29T14:07:02.697Z,102166.33
2024-01-29T14:09:31.086Z,102160.84
2024-01-29T14:11:59.547Z,102163.41
2024-01-29T14:14:34.433Z,102160.59
2024-01-29T14:17:08.943Z,102162.77
2024-01-29T14:19:37.324Z,102158.25
2024-01-29T14:22:05.856Z,102162.15
2024-01-29T14:24:34.608Z,102163.25
2024-01-29T14:27:02.866Z,102163.20
2024-01-29T14:29:31.126Z,102163.50
2024-01-29T14:31:59.318Z,102163.93
2024-01-29T14:34:27.684Z,102158.84
2024-01-29T14:36:56.063Z,102158.91
2024-01-29T14:39:24.433Z,102160.01
2024-01-29T14:41:53.319Z,102158.00
2024-01-29T14:44:21.510Z,102159.10
2024-01-29T14:46:49.823Z,102156.27
2024-01-29T14:49:18.059Z,102157.59
2024-01-29T14:51:47.400Z,102157.73
2024-01-29T14:54:15.723Z,102157.36
2024-01-29T14:56:44.217Z,102156.46
2024-01-29T14:59:12.377Z,102158.61
2024-01-29T15:01:41.501Z,102164.15
2024-01-29T15:04:13.329Z,102163.34
2024-01-29T15:06:42.221Z,102167.27
2024-01-29T15:09:11.810Z,102166.95
2024-01-29T15:11:40.156Z,102166.59
2024-01-29T15:14:08.392Z,102159.63
2024-01-29T15:16:36.768Z,102160.61
2024-01-29T15:19:05.036Z,102163.48
2024-01-29T15:21:33.273Z,102163.94
2024-01-29T15:24:01.419Z,102172.98
2024-01-29T15:26:30.115Z,102171.22
2024-01-29T15:28:58.657Z,102173.30
2024-01-29T15:31:32.142Z,102172.46
2024-01-29T15:34:00.507Z,102173.23
2024-01-29T15:36:28.938Z,102172.59
2024-01-29T15:38:57.082Z,102172.97
2024-01-29T15:41:25.876Z,102168.54
2024-01-29T15:43:54.042Z,102164.98
2024-01-29T15:46:23.204Z,102166.85
2024-01-29T15:48:51.695Z,102168.67
2024-01-29T15:51:23.610Z,102170.02
2024-01-29T15:53:53.812Z,102169.46
2024-01-29T15:56:21.905Z,102167.35
2024-01-29T15:58:50.363Z,102169.15
2024-01-29T16:01:18.462Z,102169.43
2024-01-29T16:03:46.758Z,102174.20
2024-01-29T16:06:15.323Z,102171.24
2024-01-29T16:08:45.306Z,102170.60
2024-01-29T16:11:13.621Z,102172.91
2024-01-29T16:13:41.758Z,102169.94
2024-01-29T16:16:14.801Z,102167.80
2024-01-29T16:18:44.770Z,102167.40
2024-01-29T16:21:19.916Z,102162.04
2024-01-29T16:23:48.377Z,102162.80
2024-01-29T16:26:20.953Z,102159.10
2024-01-29T16:36:44.505Z,102158.16
2024-01-29T16:39:12.765Z,102156.75
2024-01-29T16:41:41.019Z,102152.73
2024-01-29T16:44:12.111Z,102150.80
2024-01-29T16:46:43.206Z,102151.42
2024-01-29T16:49:11.392Z,102155.31
2024-01-29T16:51:39.800Z,102150.81
2024-01-29T16:54:08.026Z,102154.70
2024-01-29T16:56:38.770Z,102156.86
2024-01-29T16:59:09.062Z,102159.67
2024-01-29T17:01:37.733Z,102159.91
2024-01-29T17:04:06.227Z,102160.41
2024-01-29T17:06:35.584Z,102162.77
2024-01-29T17:09:04.141Z,102163.29
2024-01-29T17:11:32.445Z,102163.33
2024-01-29T17:14:01.168Z,102164.66
2024-01-29T17:16:29.475Z,102164.69
2024-01-29T17:18:57.878Z,102163.85
2024-01-29T17:21:27.975Z,102169.06
2024-01-29T17:23:56.696Z,102169.90
2024-01-29T17:26:24.947Z,102167.36
2024-01-29T17:28:54.669Z,102164.92
2024-01-29T17:31:22.949Z,102164.86
2024-01-29T17:33:51.683Z,102167.20
2024-01-29T17:36:21.212Z,102169.48
2024-01-29T17:38:49.489Z,102167.50
2024-01-29T17:41:17.585Z,102167.76
2024-01-29T17:43:46.929Z,102170.58
2024-01-29T17:46:16.579Z,102172.83
2024-01-29T17:48:45.000Z,102175.35
2024-01-29T17:51:13.428Z,102180.67
2024-01-29T17:53:41.593Z,102175.80
2024-01-29T17:56:09.828Z,102176.75
2024-01-29T17:58:38.053Z,102180.94
2024-01-29T18:01:09.006Z,102178.68
2024-01-29T18:03:37.422Z,102178.11
2024-01-29T18:06:06.898Z,102177.23
2024-01-29T18:08:37.118Z,102180.98
2024-01-29T18:11:05.429Z,102180.46
2024-01-29T18:13:33.659Z,102182.12
2024-01-29T18:16:01.856Z,102178.17
2024-01-29T18:18:30.166Z,102183.94
2024-01-29T18:20:59.541Z,102184.41
2024-01-29T18:23:27.619Z,102186.21
2024-01-29T18:25:55.971Z,102185.27
2024-01-29T18:28:24.298Z,102184.52
2024-01-29T18:30:52.736Z,102186.31
2024-01-29T18:33:21.082Z,102187.39
2024-01-29T18:35:49.298Z,102181.55
2024-01-29T18:38:17.521Z,102183.23
2024-01-29T18:40:45.593Z,102181.23
2024-01-29T18:43:14.013Z,102177.47
2024-01-29T18:45:42.273Z,102181.69
2024-01-29T18:48:10.478Z,102179.23
2024-01-29T18:50:38.822Z,102172.79
2024-01-29T18:53:07.692Z,102178.83
2024-01-29T18:55:35.907Z,102176.67
2024-01-29T18:58:04.616Z,102179.80
2024-01-29T19:00:32.850Z,102181.05
2024-01-29T19:03:01.591Z,102178.73
2024-01-29T19:05:30.360Z,102181.89
2024-01-29T19:07:58.591Z,102181.11
2024-01-29T19:10:26.923Z,102186.00
2024-01-29T19:12:55.710Z,102183.17
2024-01-29T19:15:25.449Z,102185.02
2024-01-29T19:17:53.650Z,102184.34
2024-01-29T19:20:21.864Z,102180.73
2024-01-29T19:22:50.458Z,102180.22
2024-01-29T19:25:18.658Z,102176.91
2024-01-29T19:27:47.684Z,102177.17
2024-01-29T19:30:16.493Z,102176.56
2024-01-29T19:32:44.711Z,102172.31
2024-01-29T19:35:13.141Z,102175.21
2024-01-29T19:37:41.572Z,102179.66
2024-01-29T19:40:11.298Z,102183.40
2024-01-29T19:42:39.854Z,102181.88
2024-01-29T19:45:10.603Z,102184.15
2024-01-29T19:47:38.796Z,102179.96
2024-01-29T19:50:13.031Z,102183.89
2024-01-29T19:52:41.204Z,102183.13
2024-01-29T19:55:09.431Z,102183.61
2024-01-29T19:57:39.117Z,102186.77
2024-01-29T20:00:09.808Z,102185.70
2024-01-29T20:02:39.942Z,102180.23
2024-01-29T20:05:09.173Z,102182.58
2024-01-29T20:07:38.006Z,102181.50
2024-01-29T20:10:07.807Z,102181.45
2024-01-29T20:12:35.995Z,102181.08
2024-01-29T20:15:04.471Z,102179.95
2024-01-29T20:17:32.654Z,102174.35
2024-01-29T20:20:00.877Z,102172.02
2024-01-29T20:22:30.093Z,102173.60
2024-01-29T20:24:58.215Z,102167.70
2024-01-29T20:27:26.647Z,102168.48
2024-01-29T20:29:55.481Z,102166.22
2024-01-29T20:32:26.471Z,102165.04
2024-01-29T20:34:55.307Z,102165.27
2024-01-29T20:37:23.718Z,102162.02
2024-01-29T20:39:52.012Z,102161.95
2024-01-29T20:42:20.402Z,102161.22
2024-01-29T20:44:49.090Z,102156.95
2024-01-29T20:47:17.185Z,102155.87
2024-01-29T20:49:46.680Z,102151.58
2024-01-29T20:52:14.914Z,102154.66
2024-01-29T20:54:45.032Z,102148.31
2024-01-29T20:57:13.652Z,102147.09
2024-01-29T20:59:41.873Z,102147.60
2024-01-29T21:02:13.349Z,102142.80
2024-01-29T21:04:42.923Z,102141.92
2024-01-29T21:07:11.511Z,102138.66
2024-01-29T21:09:39.868Z,102129.48
2024-01-29T21:12:08.382Z,102124.05
2024-01-29T21:14:36.486Z,102117.92
2024-01-29T21:17:05.609Z,102117.74
2024-01-29T21:19:34.564Z,102116.54
2024-01-29T21:22:03.332Z,102116.61
2024-01-29T21:24:36.104Z,102113.59
2024-01-29T21:27:04.854Z,102117.00
2024-01-29T21:29:33.312Z,102120.27
2024-01-29T21:32:01.398Z,102117.77
2024-01-29T21:34:30.250Z,102117.46
2024-01-29T21:36:59.826Z,102119.45
2024-01-29T21:39:28.261Z,102119.62
2024-01-29T21:41:56.535Z,102119.82
2024-01-29T21:44:26.931Z,102124.92
2024-01-29T21:46:55.648Z,102123.74
2024-01-29T21:49:23.871Z,102125.10
2024-01-29T21:51:53.647Z,102124.79
2024-01-29T21:54:22.526Z,102121.85
2024-01-29T21:56:50.627Z,102125.57
2024-01-29T21:59:19.281Z,102129.70
2024-01-29T22:01:47.692Z,102127.39
2024-01-29T22:04:16.439Z,102133.58
2024-01-29T22:06:45.186Z,102133.27
2024-01-29T22:09:13.726Z,102136.05
2024-01-29T22:11:41.780Z,102139.66
2024-01-29T22:14:10.509Z,102140.93
2024-01-29T22:16:38.849Z,102141.21
2024-01-29T22:19:07.830Z,102136.97
2024-01-29T22:21:36.553Z,102134.88
2024-01-29T22:24:05.117Z,102136.45
2024-01-29T22:26:33.377Z,102136.54
2024-01-29T22:29:01.447Z,102132.59
2024-01-29T22:31:29.671Z,102131.20
2024-01-29T22:33:58.722Z,102137.45
2024-01-29T22:36:29.358Z,102137.24
2024-01-29T22:38:59.600Z,102135.23
2024-01-29T22:41:28.177Z,102135.30
2024-01-29T22:43:56.223Z,102130.93
2024-01-29T22:46:24.448Z,102129.98
2024-01-29T22:48:55.145Z,102131.36
2024-01-29T22:51:27.846Z,102131.41
2024-01-29T22:53:56.090Z,102132.55
2024-01-29T22:56:24.392Z,102130.70
2024-01-29T22:58:52.636Z,102128.73
2024-01-29T23:01:21.745Z,102129.81
2024-01-29T23:03:49.968Z,102131.34
2024-01-29T23:06:18.418Z,102127.15
2024-01-29T23:08:46.643Z,102122.80
2024-01-29T23:11:14.757Z,102122.21
2024-01-29T23:13:43.018Z,102120.66
2024-01-29T23:16:11.849Z,102120.45
2024-01-29T23:18:41.680Z,102125.12
2024-01-29T23:21:10.023Z,102122.80
2024-01-29T23:23:38.216Z,102121.00
2024-01-29T23:26:06.457Z,102116.51
2024-01-29T23:28:35.948Z,102114.71
2024-01-29T23:31:04.308Z,102108.29
2024-01-29T23:33:32.727Z,102103.33
2024-01-29T23:36:00.987Z,102103.16
2024-01-29T23:38:29.254Z,102098.09
2024-01-29T23:40:58.273Z,102095.59
2024-01-29T23:43:26.442Z,102094.17
2024-01-29T23:45:54.697Z,102094.33
2024-01-29T23:48:22.823Z,102096.85
2024-01-29T23:50:51.162Z,102099.33
2024-01-29T23:53:19.330Z,102097.36
2024-01-29T23:55:48.312Z,102098.66
2024-01-29T23:58:16.632Z,102099.71
